Time,TemperatureF,DewpointF,PressureIn,WindDirection,WindDirectionDegrees,WindSpeedMPH,WindSpeedGustMPH,Humidity,HourlyPrecipIn,Conditions,Clouds,dailyrainin,SoftwareType,DateUTC
2013-02-08 00:00:00,28.7,24.5,27.24,South,181,13.0,25.0,84,0.00,,,-99.99,Weather View 32 v60,2013-02-08 05:00:00,
2013-02-08 00:20:00,28.8,24.6,27.22,South,187,13.0,25.0,84,0.00,,,-99.99,Weather View 32 v60,2013-02-08 05:20:00,
2013-02-08 00:40:00,28.7,24.8,27.21,South,187,10.0,25.0,85,0.00,,,-99.99,Weather View 32 v60,2013-02-08 05:40:00,
2013-02-08 01:00:00,28.8,25.1,27.21,South,186,10.0,24.0,86,0.00,,,-99.99,Weather View 32 v60,2013-02-08 06:00:00,
2013-02-08 01:20:00,28.9,25.5,27.20,South,172,12.0,22.0,87,0.00,,,-99.99,Weather View 32 v60,2013-02-08 06:20:00,
2013-02-08 01:40:00,29.0,25.9,27.19,South,189,8.0,22.0,88,0.00,,,-99.99,Weather View 32 v60,2013-02-08 06:40:00,
2013-02-08 02:00:00,28.8,25.7,27.19,SSW,203,12.0,21.0,88,0.00,,,-99.99,Weather View 32 v60,2013-02-08 07:00:00,
2013-02-08 02:20:00,28.5,25.4,27.18,South,172,11.0,21.0,88,0.00,,,-99.99,Weather View 32 v60,2013-02-08 07:20:00,
2013-02-08 02:40:00,28.2,25.1,27.18,South,171,15.0,21.0,88,0.00,,,-99.99,Weather View 32 v60,2013-02-08 07:40:00,
2013-02-08 03:00:00,28.0,25.2,27.17,South,173,16.0,19.0,89,0.00,,,-99.99,Weather View 32 v60,2013-02-08 08:00:00,
2013-02-08 03:20:00,28.0,25.4,27.17,South,176,8.0,19.0,90,0.00,,,-99.99,Weather View 32 v60,2013-02-08 08:20:00,
2013-02-08 03:40:00,27.8,25.0,27.16,South,175,11.0,23.0,89,0.00,,,-99.99,Weather View 32 v60,2013-02-08 08:40:00,
2013-02-08 04:00:00,27.7,25.2,27.16,South,179,7.0,23.0,90,0.00,,,-99.99,Weather View 32 v60,2013-02-08 09:00:00,
2013-02-08 04:20:00,27.7,25.2,27.15,South,178,11.0,23.0,90,0.00,,,-99.99,Weather View 32 v60,2013-02-08 09:20:00,
2013-02-08 04:40:00,28.0,25.4,27.15,South,178,11.0,22.0,90,0.00,,,-99.99,Weather View 32 v60,2013-02-08 09:40:00,
2013-02-08 05:00:00,27.9,25.3,27.14,SSE,167,13.0,22.0,90,0.00,,,-99.99,Weather View 32 v60,2013-02-08 10:00:00,
2013-02-08 05:20:00,28.0,25.4,27.14,South,172,10.0,20.0,90,0.00,,,-99.99,Weather View 32 v60,2013-02-08 10:20:00,
2013-02-08 05:40:00,28.1,25.5,27.13,South,187,4.0,20.0,90,0.00,,,-99.99,Weather View 32 v60,2013-02-08 10:40:00,
2013-02-08 06:00:00,28.1,25.5,27.13,South,173,6.0,20.0,90,0.00,,,-99.99,Weather View 32 v60,2013-02-08 11:00:00,
2013-02-08 06:20:00,28.3,25.7,27.12,South,190,6.0,14.0,90,0.00,,,-99.99,Weather View 32 v60,2013-02-08 11:20:00,
2013-02-08 06:40:00,28.8,26.2,27.13,South,175,3.0,14.0,90,0.00,,,-99.99,Weather View 32 v60,2013-02-08 11:40:00,
2013-02-08 07:00:00,29.4,26.6,27.12,South,170,5.0,12.0,89,0.00,,,-99.99,Weather View 32 v60,2013-02-08 12:00:00,
2013-02-08 07:20:00,30.7,27.3,27.11,SW,219,5.0,13.0,87,0.00,,,-99.99,Weather View 32 v60,2013-02-08 12:20:00,
2013-02-08 07:40:00,32.0,28.0,27.11,SW,214,6.0,17.0,85,0.00,,,-99.99,Weather View 32 v60,2013-02-08 12:40:00,
2013-02-08 08:00:00,32.5,29.1,27.10,South,185,6.0,17.0,87,0.00,,,-99.99,Weather View 32 v60,2013-02-08 13:00:00,
2013-02-08 08:20:00,33.3,29.8,27.10,SW,235,0.0,17.0,87,0.00,,,-99.99,Weather View 32 v60,2013-02-08 13:20:00,
2013-02-08 08:40:00,34.5,31.3,27.09,SSW,210,3.0,14.0,88,0.00,,,-99.99,Weather View 32 v60,2013-02-08 13:40:00,
2013-02-08 09:00:00,35.2,32.3,27.08,SW,234,0.0,14.0,89,0.00,,,-99.99,Weather View 32 v60,2013-02-08 14:00:00,
2013-02-08 09:20:00,40.7,35.9,27.06,ENE,64,3.0,9.0,83,0.00,,,-99.99,Weather View 32 v60,2013-02-08 14:20:00,
2013-02-08 09:40:00,36.6,31.3,27.06,South,179,8.0,11.0,81,0.00,,,-99.99,Weather View 32 v60,2013-02-08 14:40:00,
2013-02-08 10:00:00,35.7,32.8,27.06,SW,222,3.0,13.0,89,0.00,,,-99.99,Weather View 32 v60,2013-02-08 15:00:00,
2013-02-08 10:20:00,36.3,33.6,27.06,WSW,247,1.0,13.0,90,0.01,,,-99.99,Weather View 32 v60,2013-02-08 15:20:00,
2013-02-08 10:40:00,37.5,34.6,27.06,SW,225,3.0,13.0,89,0.01,,,-99.99,Weather View 32 v60,2013-02-08 15:40:00,
2013-02-08 11:00:00,36.8,34.1,27.06,WSW,251,3.0,11.0,90,0.02,,,-99.99,Weather View 32 v60,2013-02-08 16:00:00,
2013-02-08 11:20:00,36.4,34.0,27.04,WNW,301,4.0,12.0,91,0.02,,,-99.99,Weather View 32 v60,2013-02-08 16:20:00,
2013-02-08 11:40:00,36.2,33.8,27.04,WNW,298,4.0,12.0,91,0.03,,,-99.99,Weather View 32 v60,2013-02-08 16:40:00,
2013-02-08 12:00:00,35.6,33.8,27.03,West,277,11.0,12.0,93,0.02,,,-99.99,Weather View 32 v60,2013-02-08 17:00:00,
2013-02-08 12:20:00,35.9,34.3,27.03,WSW,252,6.0,14.0,94,0.01,,,-99.99,Weather View 32 v60,2013-02-08 17:20:00,
2013-02-08 12:40:00,35.4,33.8,27.04,NW,307,8.0,18.0,94,0.01,,,-99.99,Weather View 32 v60,2013-02-08 17:40:00,
2013-02-08 13:00:00,33.8,32.3,27.04,NNW,340,9.0,18.0,94,0.02,,,-99.99,Weather View 32 v60,2013-02-08 18:00:00,
2013-02-08 13:20:00,32.6,31.1,27.04,NW,314,9.0,20.0,94,0.02,,,-99.99,Weather View 32 v60,2013-02-08 18:20:00,
2013-02-08 13:40:00,32.1,30.8,27.04,NW,322,11.0,23.0,95,0.01,,,-99.99,Weather View 32 v60,2013-02-08 18:40:00,
2013-02-08 14:00:00,31.8,30.5,27.05,NW,322,15.0,23.0,95,0.01,,,-99.99,Weather View 32 v60,2013-02-08 19:00:00,
2013-02-08 14:20:00,31.5,30.5,27.05,NNW,337,11.0,25.0,96,0.01,,,-99.99,Weather View 32 v60,2013-02-08 19:20:00,
2013-02-08 14:40:00,30.4,28.9,27.06,NW,324,10.0,25.0,94,0.01,,,-99.99,Weather View 32 v60,2013-02-08 19:40:00,
2013-02-08 15:00:00,29.5,28.0,27.06,NW,307,17.0,25.0,94,0.00,,,-99.99,Weather View 32 v60,2013-02-08 20:00:00,
2013-02-08 15:20:00,28.8,27.3,27.08,WNW,294,20.0,25.0,94,0.00,,,-99.99,Weather View 32 v60,2013-02-08 20:20:00,
2013-02-08 15:40:00,27.8,26.3,27.08,NNW,328,18.0,26.0,94,0.00,,,-99.99,Weather View 32 v60,2013-02-08 20:40:00,
2013-02-08 16:00:00,27.2,25.4,27.09,WNW,292,7.0,26.0,93,0.00,,,-99.99,Weather View 32 v60,2013-02-08 21:00:00,
2013-02-08 16:20:00,26.8,25.0,27.11,NNW,335,8.0,30.0,93,0.00,,,-99.99,Weather View 32 v60,2013-02-08 21:20:00,
2013-02-08 16:40:00,26.5,24.5,27.12,WNW,302,11.0,30.0,92,0.01,,,-99.99,Weather View 32 v60,2013-02-08 21:40:00,
2013-02-08 17:00:00,26.0,24.0,27.12,North,351,8.0,30.0,92,0.01,,,-99.99,Weather View 32 v60,2013-02-08 22:00:00,
2013-02-08 17:20:00,25.2,22.9,27.14,NNW,329,10.0,27.0,91,0.01,,,-99.99,Weather View 32 v60,2013-02-08 22:20:00,
2013-02-08 17:40:00,24.3,21.8,27.16,NW,318,10.0,27.0,90,0.00,,,-99.99,Weather View 32 v60,2013-02-08 22:40:00,
2013-02-08 18:00:00,23.5,20.7,27.17,WNW,303,18.0,27.0,89,0.00,,,-99.99,Weather View 32 v60,2013-02-08 23:00:00,
2013-02-08 18:20:00,23.0,20.2,27.19,NW,322,10.0,34.0,89,0.00,,,-99.99,Weather View 32 v60,2013-02-08 23:20:00,
2013-02-08 18:40:00,22.8,20.0,27.19,NNW,342,11.0,34.0,89,0.00,,,-99.99,Weather View 32 v60,2013-02-08 23:40:00,
2013-02-08 19:00:00,22.5,19.5,27.19,NW,321,15.0,34.0,88,0.00,,,-99.99,Weather View 32 v60,2013-02-09 00:00:00,
2013-02-08 19:20:00,22.4,19.4,27.20,NW,320,4.0,20.0,88,0.00,,,-99.99,Weather View 32 v60,2013-02-09 00:20:00,
2013-02-08 19:40:00,22.2,19.2,27.21,NW,323,14.0,20.0,88,0.00,,,-99.99,Weather View 32 v60,2013-02-09 00:40:00,
2013-02-08 20:00:00,21.8,18.8,27.21,WNW,302,8.0,25.0,88,0.00,,,-99.99,Weather View 32 v60,2013-02-09 01:00:00,
2013-02-08 20:20:00,21.5,18.2,27.21,NNW,328,11.0,27.0,87,0.00,,,-99.99,Weather View 32 v60,2013-02-09 01:20:00,
2013-02-08 20:40:00,21.2,17.9,27.22,NNW,330,14.0,27.0,87,0.00,,,-99.99,Weather View 32 v60,2013-02-09 01:40:00,
2013-02-08 21:00:00,20.8,17.5,27.23,NW,322,14.0,27.0,87,0.00,,,-99.99,Weather View 32 v60,2013-02-09 02:00:00,
2013-02-08 21:20:00,20.6,17.3,27.23,NW,320,10.0,27.0,87,0.00,,,-99.99,Weather View 32 v60,2013-02-09 02:20:00,
2013-02-08 21:40:00,20.5,17.2,27.23,NW,314,12.0,28.0,87,0.00,,,-99.99,Weather View 32 v60,2013-02-09 02:40:00,
2013-02-08 22:00:00,20.0,16.5,27.23,NW,326,7.0,28.0,86,0.00,,,-99.99,Weather View 32 v60,2013-02-09 03:00:00,
2013-02-08 22:20:00,19.8,16.6,27.23,NW,312,6.0,28.0,87,0.00,,,-99.99,Weather View 32 v60,2013-02-09 03:20:00,
2013-02-08 22:40:00,19.7,16.5,27.24,NW,316,10.0,28.0,87,0.00,,,-99.99,Weather View 32 v60,2013-02-09 03:40:00,
2013-02-08 23:00:00,19.6,16.4,27.26,NW,326,5.0,27.0,87,0.00,,,-99.99,Weather View 32 v60,2013-02-09 04:00:00,
2013-02-08 23:20:00,19.7,16.5,27.27,NW,313,5.0,27.0,87,0.00,,,-99.99,Weather View 32 v60,2013-02-09 04:20:00,
2013-02-08 23:40:00,19.5,16.3,27.27,WNW,296,9.0,27.0,87,0.00,,,-99.99,Weather View 32 v60,2013-02-09 04:40:00,